Terminal Aerodrome Forecast
Issued by NWS Riverton, WY

Home | Current Version | Previous Version | Text Only | Print | Product List | Glossary On
Versions: 1 2 3 4 5 6 7 8 9 10 11 12 13 14 15 16 17
000
FTUS45 KRIW 160500
TAFRIW
TAF
KRIW 160523Z 1606/1706 01011KT P6SM SCT030
      TEMPO 1606/1608 BKN030
     FM160900 30011KT P6SM SCT120
     FM161700 VRB05KT P6SM SCT080 BKN150
     FM162300 28011KT P6SM SCT070 BKN150=

USA.gov is the U.S. government's official web portal to all federal, state and local government web resources and services.